createdAt,value
2023-03-11T00:01:43.684Z,6.88
2023-03-11T00:04:25.083Z,6.87
2023-03-11T00:06:54.118Z,6.86
2023-03-11T00:09:22.940Z,6.85
2023-03-11T00:11:51.727Z,6.86
2023-03-11T00:14:20.962Z,6.87
2023-03-11T00:16:50.124Z,6.89
2023-03-11T00:19:18.824Z,6.92
2023-03-11T00:21:49.977Z,6.95
2023-03-11T00:24:18.918Z,6.97
2023-03-11T00:26:48.450Z,7.00
2023-03-11T00:29:17.314Z,7.01
2023-03-11T00:31:51.415Z,7.00
2023-03-11T00:34:20.265Z,6.99
2023-03-11T00:36:49.806Z,6.97
2023-03-11T00:39:18.775Z,6.96
2023-03-11T00:41:51.185Z,6.95
2023-03-11T00:44:20.214Z,6.96
2023-03-11T00:46:49.886Z,6.96
2023-03-11T00:49:19.012Z,6.96
2023-03-11T00:51:50.047Z,6.95
2023-03-11T00:54:19.537Z,6.94
2023-03-11T00:56:50.185Z,6.89
2023-03-11T00:59:22.951Z,6.82
2023-03-11T01:01:52.020Z,6.78
2023-03-11T01:04:22.956Z,6.73
2023-03-11T01:06:51.900Z,6.69
2023-03-11T01:09:20.810Z,6.66
2023-03-11T01:11:51.151Z,6.64
2023-03-11T01:14:21.132Z,6.62
2023-03-11T01:17:14.125Z,6.58
2023-03-11T01:19:45.105Z,6.54
2023-03-11T01:22:15.159Z,6.49
2023-03-11T01:24:45.571Z,6.43
2023-03-11T01:27:15.162Z,6.36
2023-03-11T01:29:44.632Z,6.30
2023-03-11T01:32:17.181Z,6.25
2023-03-11T01:34:47.054Z,6.21
2023-03-11T01:37:16.072Z,6.18
2023-03-11T01:39:47.835Z,6.13
2023-03-11T01:42:16.668Z,6.10
2023-03-11T01:44:45.425Z,6.09
2023-03-11T01:47:41.554Z,6.07
2023-03-11T01:50:13.844Z,6.03
2023-03-11T01:52:44.415Z,5.99
2023-03-11T01:55:15.395Z,5.95
2023-03-11T01:57:46.521Z,5.89
2023-03-11T02:00:17.085Z,5.83
2023-03-11T02:02:51.818Z,5.78
2023-03-11T02:05:24.132Z,5.74
2023-03-11T02:07:58.078Z,5.69
2023-03-11T02:10:39.043Z,5.67
2023-03-11T02:13:10.038Z,5.68
2023-03-11T02:15:40.397Z,5.68
2023-03-11T02:18:15.267Z,5.63
2023-03-11T02:21:04.214Z,5.60
2023-03-11T02:23:47.116Z,5.57
2023-03-11T02:26:22.781Z,5.48
2023-03-11T02:28:54.422Z,5.36
2023-03-11T02:31:27.821Z,5.27
2023-03-11T02:34:03.281Z,5.19
2023-03-11T02:36:36.738Z,5.15
2023-03-11T02:39:10.750Z,5.12
2023-03-11T02:41:46.223Z,5.09
2023-03-11T02:44:16.702Z,5.04
2023-03-11T02:46:54.539Z,5.00
2023-03-11T02:49:25.802Z,4.95
2023-03-11T02:51:56.348Z,4.87
2023-03-11T02:54:26.526Z,4.83
2023-03-11T02:56:58.383Z,4.77
2023-03-11T02:59:29.363Z,4.69
2023-03-11T03:02:03.052Z,4.61
2023-03-11T03:04:34.542Z,4.53
2023-03-11T03:07:04.934Z,4.48
2023-03-11T03:09:34.953Z,4.47
2023-03-11T03:12:04.535Z,4.45
2023-03-11T03:14:34.694Z,4.46
2023-03-11T03:17:03.756Z,4.48
2023-03-11T03:19:32.693Z,4.48
2023-03-11T03:22:02.047Z,4.46
2023-03-11T03:24:38.974Z,4.42
2023-03-11T03:27:07.755Z,4.37
2023-03-11T03:29:37.113Z,4.34
2023-03-11T03:32:07.877Z,4.32
2023-03-11T03:34:40.013Z,4.30
2023-03-11T03:37:08.730Z,4.27
2023-03-11T03:39:38.110Z,4.28
2023-03-11T03:42:08.267Z,4.32
2023-03-11T03:44:41.382Z,4.35
2023-03-11T03:47:11.792Z,4.41
2023-03-11T03:49:42.686Z,4.48
2023-03-11T03:52:11.631Z,4.54
2023-03-11T03:54:42.262Z,4.58
2023-03-11T03:57:11.274Z,4.61
2023-03-11T03:59:46.075Z,4.62
2023-03-11T04:02:18.037Z,4.63
2023-03-11T04:04:47.482Z,4.62
2023-03-11T04:07:18.078Z,4.58
2023-03-11T04:09:47.992Z,4.58
2023-03-11T04:12:17.723Z,4.64
2023-03-11T04:14:48.287Z,4.70
2023-03-11T04:17:18.318Z,4.75
2023-03-11T04:19:49.613Z,4.79
2023-03-11T04:22:18.599Z,4.86
2023-03-11T04:24:50.664Z,4.93
2023-03-11T04:27:20.887Z,4.93
2023-03-11T04:29:52.218Z,4.95
2023-03-11T04:32:22.557Z,5.01
2023-03-11T04:34:51.745Z,5.02
2023-03-11T04:37:28.419Z,5.03
2023-03-11T04:39:58.159Z,5.02
2023-03-11T04:42:28.546Z,5.02
2023-03-11T04:44:57.434Z,5.05
2023-03-11T04:48:08.712Z,5.05
2023-03-11T04:50:49.408Z,5.06
2023-03-11T04:53:20.630Z,5.09
2023-03-11T04:55:53.425Z,5.13
2023-03-11T04:58:28.178Z,5.18
2023-03-11T05:00:57.208Z,5.22
2023-03-11T05:03:32.867Z,5.22
2023-03-11T05:06:11.250Z,5.19
2023-03-11T05:08:40.386Z,5.17
2023-03-11T05:11:09.846Z,5.17
2023-03-11T05:13:41.262Z,5.16
2023-03-11T05:16:09.961Z,5.17
2023-03-11T05:18:39.095Z,5.18
2023-03-11T05:21:14.372Z,5.24
2023-03-11T05:23:44.725Z,5.30
2023-03-11T05:26:17.314Z,5.36
2023-03-11T05:28:55.608Z,5.44
2023-03-11T05:31:27.309Z,5.51
2023-03-11T05:34:01.957Z,5.59
2023-03-11T05:36:34.395Z,5.65
2023-03-11T05:39:05.322Z,5.70
2023-03-11T05:41:36.434Z,5.73
2023-03-11T05:44:06.028Z,5.74
2023-03-11T05:46:50.383Z,5.77
2023-03-11T05:49:20.817Z,5.80
2023-03-11T05:51:53.637Z,5.82
2023-03-11T05:54:22.572Z,5.86
2023-03-11T05:56:55.383Z,5.91
2023-03-11T05:59:24.927Z,5.96
2023-03-11T06:02:06.966Z,6.00
2023-03-11T06:04:41.385Z,6.05
2023-03-11T06:07:14.278Z,6.11
2023-03-11T06:09:49.567Z,6.18
2023-03-11T06:12:19.292Z,6.23
2023-03-11T06:15:11.351Z,6.27
2023-03-11T06:17:40.777Z,6.33
2023-03-11T06:20:12.894Z,6.40
2023-03-11T06:22:42.056Z,6.47
2023-03-11T06:25:12.385Z,6.51
2023-03-11T06:27:41.643Z,6.55
2023-03-11T06:30:13.829Z,6.58
2023-03-11T06:32:50.197Z,6.60
2023-03-11T06:35:25.145Z,6.64
2023-03-11T06:37:56.530Z,6.67
2023-03-11T06:40:26.505Z,6.69
2023-03-11T06:42:55.276Z,6.73
2023-03-11T06:45:25.038Z,6.77
2023-03-11T06:48:03.616Z,6.83
2023-03-11T06:50:35.339Z,6.88
2023-03-11T06:53:07.321Z,6.92
2023-03-11T06:55:42.869Z,6.99
2023-03-11T06:58:13.090Z,7.04
2023-03-11T07:00:42.800Z,7.09
2023-03-11T07:03:19.381Z,7.11
2023-03-11T07:05:58.713Z,7.09
2023-03-11T07:08:30.996Z,7.07
2023-03-11T07:11:08.776Z,7.05
2023-03-11T07:13:38.000Z,7.03
2023-03-11T07:16:11.147Z,7.03
2023-03-11T07:18:40.381Z,7.06
2023-03-11T07:21:14.233Z,7.08
2023-03-11T07:23:46.459Z,7.10
2023-03-11T07:26:18.935Z,7.14
2023-03-11T07:28:49.225Z,7.15
2023-03-11T07:31:21.320Z,7.17
2023-03-11T07:33:50.847Z,7.16
2023-03-11T07:36:31.076Z,7.17
2023-03-11T07:39:10.032Z,7.14
2023-03-11T07:41:45.527Z,7.12
2023-03-11T07:44:19.117Z,7.12
2023-03-11T07:46:55.847Z,7.14
2023-03-11T07:49:27.609Z,7.16
2023-03-11T07:51:58.116Z,7.17
2023-03-11T07:54:27.858Z,7.19
2023-03-11T07:56:59.335Z,7.21
2023-03-11T07:59:31.285Z,7.20
2023-03-11T08:02:04.918Z,7.19
2023-03-11T08:04:41.113Z,7.18
2023-03-11T08:07:10.823Z,7.14
2023-03-11T08:10:13.959Z,7.12
2023-03-11T08:12:44.128Z,7.12
2023-03-11T08:15:17.659Z,7.11
2023-03-11T08:18:09.468Z,7.11
2023-03-11T08:20:51.470Z,7.13
2023-03-11T08:23:59.715Z,7.14
2023-03-11T08:26:50.313Z,7.17
2023-03-11T08:29:48.678Z,7.19
2023-03-11T08:32:42.170Z,7.15
2023-03-11T08:35:33.135Z,7.12
2023-03-11T08:38:31.754Z,7.09
2023-03-11T08:41:12.834Z,7.07
2023-03-11T08:43:56.717Z,7.07
2023-03-11T08:47:07.347Z,7.05
2023-03-11T08:49:46.110Z,7.03
2023-03-11T08:52:27.034Z,7.00
2023-03-11T08:58:31.039Z,6.95
2023-03-11T09:01:27.540Z,6.93
2023-03-11T09:04:05.020Z,6.91
2023-03-11T09:10:47.678Z,6.79
2023-03-11T09:14:06.754Z,6.68
2023-03-11T09:21:56.031Z,6.51
2023-03-11T09:25:27.259Z,6.50
2023-03-11T09:27:57.738Z,6.49
2023-03-11T09:30:27.376Z,6.49
2023-03-11T09:32:56.564Z,6.46
2023-03-11T09:35:28.913Z,6.41
2023-03-11T09:37:58.917Z,6.33
2023-03-11T09:40:47.079Z,6.23
2023-03-11T09:43:28.182Z,6.00
2023-03-11T09:46:12.865Z,5.66
2023-03-11T09:48:48.845Z,5.45
2023-03-11T09:51:35.153Z,5.22
2023-03-11T09:54:06.057Z,4.94
2023-03-11T09:56:37.817Z,4.74
2023-03-11T09:59:14.203Z,4.51
2023-03-11T10:01:48.965Z,4.31
2023-03-11T10:04:23.705Z,4.11
2023-03-11T10:06:54.634Z,3.94
2023-03-11T10:09:40.731Z,3.84
2023-03-11T10:12:28.094Z,3.70
2023-03-11T10:15:11.507Z,3.56
2023-03-11T10:18:02.794Z,3.39
2023-03-11T10:20:39.627Z,3.24
2023-03-11T10:23:21.812Z,3.07
2023-03-11T10:26:02.577Z,2.90
2023-03-11T10:28:36.538Z,2.80
2023-03-11T10:31:19.576Z,2.73
2023-03-11T10:33:54.801Z,2.68
2023-03-11T10:36:35.556Z,2.64
2023-03-11T10:39:06.374Z,2.59
2023-03-11T10:41:49.489Z,2.52
2023-03-11T10:44:24.446Z,2.41
2023-03-11T10:46:53.515Z,2.33
2023-03-11T10:49:22.578Z,2.24
2023-03-11T10:51:53.454Z,2.15
2023-03-11T10:54:27.160Z,2.12
2023-03-11T10:56:58.798Z,2.09
2023-03-11T10:59:30.687Z,2.03
2023-03-11T11:02:20.086Z,1.95
2023-03-11T11:04:53.075Z,1.86
2023-03-11T11:07:29.920Z,1.76
2023-03-11T11:10:17.928Z,1.64
2023-03-11T11:12:58.465Z,1.55
2023-03-11T11:15:30.895Z,1.47
2023-03-11T11:18:02.377Z,1.43
2023-03-11T11:20:33.133Z,1.39
2023-03-11T11:23:04.352Z,1.32
2023-03-11T11:25:36.441Z,1.28
2023-03-11T11:28:17.159Z,1.26
2023-03-11T11:30:55.812Z,1.25
2023-03-11T11:33:27.560Z,1.19
2023-03-11T11:35:59.015Z,1.13
2023-03-11T11:38:30.160Z,1.06
2023-03-11T11:41:03.332Z,1.02
2023-03-11T11:43:48.570Z,1.03
2023-03-11T11:46:30.674Z,1.00
2023-03-11T11:49:14.960Z,0.93
2023-03-11T11:51:51.541Z,0.89
2023-03-11T11:54:27.879Z,0.87
2023-03-11T11:56:58.515Z,0.87
2023-03-11T11:59:27.777Z,0.87
2023-03-11T12:02:07.048Z,0.86
2023-03-11T12:04:54.267Z,0.87
2023-03-11T12:07:49.855Z,0.86
2023-03-11T12:10:27.548Z,0.83
2023-03-11T12:13:21.741Z,0.76
2023-03-11T12:15:57.093Z,0.72
2023-03-11T12:18:34.842Z,0.69
2023-03-11T12:21:16.714Z,0.71
2023-03-11T12:23:58.302Z,0.74
2023-03-11T12:26:33.234Z,0.75
2023-03-11T12:29:07.186Z,0.72
2023-03-11T12:31:45.963Z,0.70
2023-03-11T12:34:18.374Z,0.69
2023-03-11T12:36:50.767Z,0.71
2023-03-11T12:39:24.753Z,0.68
2023-03-11T12:42:21.225Z,0.64
2023-03-11T12:44:51.130Z,0.59
2023-03-11T12:47:26.568Z,0.51
2023-03-11T12:50:16.417Z,0.43
2023-03-11T12:52:54.929Z,0.35
2023-03-11T12:55:37.471Z,0.28
2023-03-11T12:58:45.901Z,0.24
2023-03-11T13:01:25.862Z,0.20
2023-03-11T13:04:13.067Z,0.19
2023-03-11T13:07:03.420Z,0.15
2023-03-11T13:09:32.728Z,0.12
2023-03-11T13:12:02.711Z,0.09
2023-03-11T13:14:34.984Z,0.07
2023-03-11T13:17:25.486Z,-0.01
2023-03-11T13:19:56.595Z,-0.10
2023-03-11T13:23:14.747Z,-0.20
2023-03-11T13:25:56.520Z,-0.29
2023-03-11T13:29:11.406Z,-0.33
2023-03-11T13:31:56.666Z,-0.33
2023-03-11T13:34:35.498Z,-0.33
2023-03-11T13:37:18.555Z,-0.33
2023-03-11T13:39:57.528Z,-0.35
2023-03-11T13:42:34.121Z,-0.36
2023-03-11T13:45:07.509Z,-0.36
2023-03-11T13:47:38.337Z,-0.38
2023-03-11T13:50:16.919Z,-0.39
2023-03-11T13:52:50.080Z,-0.41
2023-03-11T13:55:21.621Z,-0.43
2023-03-11T13:57:56.688Z,-0.45
2023-03-11T14:00:28.684Z,-0.50
2023-03-11T14:02:59.705Z,-0.51
2023-03-11T14:05:33.182Z,-0.51
2023-03-11T14:08:20.046Z,-0.52
2023-03-11T14:10:56.806Z,-0.51
2023-03-11T14:13:27.743Z,-0.50
2023-03-11T14:16:10.638Z,-0.50
2023-03-11T14:18:44.020Z,-0.52
2023-03-11T14:21:16.545Z,-0.53
2023-03-11T14:23:47.485Z,-0.54
2023-03-11T14:26:20.181Z,-0.54
2023-03-11T14:28:52.319Z,-0.54
2023-03-11T14:31:46.398Z,-0.52
2023-03-11T14:35:20.858Z,-0.51
2023-03-11T14:38:30.632Z,-0.51
2023-03-11T14:41:27.852Z,-0.51
2023-03-11T14:43:57.784Z,-0.49
2023-03-11T14:46:29.746Z,-0.46
2023-03-11T14:49:02.877Z,-0.44
2023-03-11T14:51:36.342Z,-0.41
2023-03-11T14:54:14.953Z,-0.36
2023-03-11T14:56:55.212Z,-0.33
2023-03-11T15:05:44.670Z,-0.28
2023-03-11T15:20:48.208Z,-0.19
2023-03-11T15:23:58.193Z,-0.16
2023-03-11T15:27:23.664Z,-0.14
2023-03-11T15:34:04.838Z,-0.18
2023-03-11T15:45:13.839Z,-0.21
2023-03-11T15:48:47.941Z,-0.23
2023-03-11T15:52:28.633Z,-0.25
2023-03-11T15:56:18.972Z,-0.24
2023-03-11T16:00:07.592Z,-0.24
2023-03-11T16:02:42.907Z,-0.25
2023-03-11T16:05:17.002Z,-0.25
2023-03-11T16:07:47.462Z,-0.27
2023-03-11T16:10:20.103Z,-0.29
2023-03-11T16:12:49.649Z,-0.28
2023-03-11T16:15:24.396Z,-0.29
2023-03-11T16:17:58.491Z,-0.29
2023-03-11T16:20:31.174Z,-0.30
2023-03-11T16:23:03.404Z,-0.30
2023-03-11T16:25:36.109Z,-0.30
2023-03-11T16:28:15.688Z,-0.33
2023-03-11T16:30:46.190Z,-0.36
2023-03-11T16:33:20.671Z,-0.38
2023-03-11T16:35:49.964Z,-0.41
2023-03-11T16:38:23.079Z,-0.44
2023-03-11T16:40:57.607Z,-0.46
2023-03-11T16:43:27.089Z,-0.49
2023-03-11T16:45:56.512Z,-0.51
2023-03-11T16:48:25.868Z,-0.53
2023-03-11T16:50:55.133Z,-0.55
2023-03-11T16:53:25.882Z,-0.57
2023-03-11T16:55:54.926Z,-0.58
2023-03-11T16:58:25.344Z,-0.58
2023-03-11T17:00:54.677Z,-0.62
2023-03-11T17:03:27.524Z,-0.65
2023-03-11T17:06:05.877Z,-0.68
2023-03-11T17:08:34.829Z,-0.68
2023-03-11T17:11:15.513Z,-0.66
2023-03-11T17:13:50.121Z,-0.64
2023-03-11T17:16:21.644Z,-0.62
2023-03-11T17:18:50.716Z,-0.60
2023-03-11T17:21:19.799Z,-0.60
2023-03-11T17:23:49.024Z,-0.59
2023-03-11T17:26:22.408Z,-0.61
2023-03-11T17:28:51.284Z,-0.62
2023-03-11T17:31:20.515Z,-0.62
2023-03-11T17:33:50.204Z,-0.62
2023-03-11T17:36:20.044Z,-0.63
2023-03-11T17:38:51.468Z,-0.64
2023-03-11T17:41:21.677Z,-0.68
2023-03-11T17:43:51.628Z,-0.71
2023-03-11T17:46:22.621Z,-0.75
2023-03-11T17:48:55.621Z,-0.78
2023-03-11T17:51:34.001Z,-0.80
2023-03-11T17:54:06.990Z,-0.82
2023-03-11T17:56:38.302Z,-0.84
2023-03-11T17:59:07.966Z,-0.83
2023-03-11T18:01:53.682Z,-0.83
2023-03-11T18:04:27.071Z,-0.84
2023-03-11T18:06:56.778Z,-0.84
2023-03-11T18:09:31.377Z,-0.84
2023-03-11T18:12:01.984Z,-0.84
2023-03-11T18:14:35.795Z,-0.84
2023-03-11T18:17:05.732Z,-0.84
2023-03-11T18:19:35.223Z,-0.83
2023-03-11T18:22:04.808Z,-0.83
2023-03-11T18:24:33.401Z,-0.83
2023-03-11T18:27:03.938Z,-0.85
2023-03-11T18:29:33.029Z,-0.90
2023-03-11T18:32:02.953Z,-0.94
2023-03-11T18:34:32.493Z,-0.98
2023-03-11T18:37:03.413Z,-1.01
2023-03-11T18:39:32.285Z,-1.04
2023-03-11T18:42:02.359Z,-1.05
2023-03-11T18:44:31.093Z,-1.07
2023-03-11T18:47:00.013Z,-1.09
2023-03-11T18:49:31.858Z,-1.11
2023-03-11T18:52:03.645Z,-1.13
2023-03-11T18:54:32.524Z,-1.17
2023-03-11T18:57:04.087Z,-1.18
2023-03-11T18:59:33.044Z,-1.19
2023-03-11T19:02:03.314Z,-1.20
2023-03-11T19:04:35.624Z,-1.21
2023-03-11T19:07:05.055Z,-1.23
2023-03-11T19:09:33.953Z,-1.24
2023-03-11T19:12:07.132Z,-1.27
2023-03-11T19:14:35.891Z,-1.29
2023-03-11T19:17:05.136Z,-1.30
2023-03-11T19:19:34.149Z,-1.31
2023-03-11T19:22:06.610Z,-1.31
2023-03-11T19:24:35.268Z,-1.32
2023-03-11T19:27:04.474Z,-1.33
2023-03-11T19:29:33.284Z,-1.35
2023-03-11T19:32:03.746Z,-1.37
2023-03-11T19:34:32.532Z,-1.37
2023-03-11T19:37:02.518Z,-1.39
2023-03-11T19:39:31.178Z,-1.39
2023-03-11T19:42:02.324Z,-1.39
2023-03-11T19:44:31.111Z,-1.39
2023-03-11T19:47:00.113Z,-1.41
2023-03-11T19:49:29.984Z,-1.42
2023-03-11T19:51:58.869Z,-1.44
2023-03-11T19:54:27.648Z,-1.45
2023-03-11T19:56:56.733Z,-1.46
2023-03-11T19:59:25.444Z,-1.47
2023-03-11T20:01:54.273Z,-1.47
2023-03-11T20:04:23.181Z,-1.48
2023-03-11T20:06:52.381Z,-1.48
2023-03-11T20:09:23.667Z,-1.51
2023-03-11T20:11:53.419Z,-1.55
2023-03-11T20:14:22.409Z,-1.57
2023-03-11T20:16:52.381Z,-1.59
2023-03-11T20:19:21.732Z,-1.59
2023-03-11T20:21:52.679Z,-1.59
2023-03-11T20:24:21.436Z,-1.59
2023-03-11T20:26:51.403Z,-1.60
2023-03-11T20:29:20.240Z,-1.60
2023-03-11T20:31:49.988Z,-1.61
2023-03-11T20:34:19.300Z,-1.64
2023-03-11T20:36:50.350Z,-1.67
2023-03-11T20:39:18.978Z,-1.70
2023-03-11T20:41:49.153Z,-1.73
2023-03-11T20:44:18.062Z,-1.74
2023-03-11T20:46:49.370Z,-1.74
2023-03-11T20:49:18.122Z,-1.74
2023-03-11T20:51:47.778Z,-1.72
2023-03-11T20:54:17.431Z,-1.70
2023-03-11T20:56:49.397Z,-1.62
2023-03-11T20:59:18.310Z,-1.55
2023-03-11T21:01:49.126Z,-1.52
2023-03-11T21:04:21.070Z,-1.50
2023-03-11T21:06:58.054Z,-1.48
2023-03-11T21:09:26.940Z,-1.47
2023-03-11T21:11:56.717Z,-1.47
2023-03-11T21:14:26.673Z,-1.49
2023-03-11T21:16:57.108Z,-1.50
2023-03-11T21:19:25.926Z,-1.51
2023-03-11T21:21:55.029Z,-1.51
2023-03-11T21:24:26.293Z,-1.49
2023-03-11T21:26:55.270Z,-1.46
2023-03-11T21:29:24.078Z,-1.44
2023-03-11T21:31:53.691Z,-1.42
2023-03-11T21:34:22.756Z,-1.40
2023-03-11T21:36:51.850Z,-1.38
2023-03-11T21:39:21.327Z,-1.40
2023-03-11T21:41:55.830Z,-1.44
2023-03-11T21:44:25.510Z,-1.46
2023-03-11T21:46:56.572Z,-1.48
2023-03-11T21:49:26.529Z,-1.51
2023-03-11T21:51:56.917Z,-1.51
2023-03-11T21:54:27.477Z,-1.49
2023-03-11T21:56:58.174Z,-1.47
2023-03-11T21:59:29.434Z,-1.42
2023-03-11T22:02:02.489Z,-1.38
2023-03-11T22:04:31.746Z,-1.36
2023-03-11T22:07:02.118Z,-1.33
2023-03-11T22:09:31.248Z,-1.32
2023-03-11T22:12:00.262Z,-1.30
2023-03-11T22:14:29.868Z,-1.28
2023-03-11T22:17:03.908Z,-1.29
2023-03-11T22:19:34.173Z,-1.29
2023-03-11T22:22:03.719Z,-1.28
2023-03-11T22:24:32.284Z,-1.27
2023-03-11T22:27:02.191Z,-1.27
2023-03-11T22:29:31.018Z,-1.29
2023-03-11T22:31:59.802Z,-1.31
2023-03-11T22:34:32.151Z,-1.33
2023-03-11T22:37:01.684Z,-1.37
2023-03-11T22:39:30.781Z,-1.40
2023-03-11T22:42:00.934Z,-1.46
2023-03-11T22:44:30.159Z,-1.50
2023-03-11T22:47:02.242Z,-1.54
2023-03-11T22:49:31.197Z,-1.57
2023-03-11T22:52:01.363Z,-1.58
2023-03-11T22:54:31.073Z,-1.59
2023-03-11T22:57:02.232Z,-1.60
2023-03-11T22:59:31.935Z,-1.61
2023-03-11T23:02:02.693Z,-1.62
2023-03-11T23:04:31.532Z,-1.62
2023-03-11T23:07:03.536Z,-1.64
2023-03-11T23:09:32.486Z,-1.66
2023-03-11T23:12:03.481Z,-1.70
2023-03-11T23:14:44.218Z,-1.73
2023-03-11T23:17:13.946Z,-1.75
2023-03-11T23:19:42.635Z,-1.76
2023-03-11T23:22:11.521Z,-1.75
2023-03-11T23:24:40.355Z,-1.75
2023-03-11T23:27:09.054Z,-1.77
2023-03-11T23:29:38.995Z,-1.77
2023-03-11T23:32:08.465Z,-1.77
2023-03-11T23:34:38.175Z,-1.77
2023-03-11T23:37:06.927Z,-1.78
2023-03-11T23:39:35.852Z,-1.80
2023-03-11T23:42:18.459Z,-1.82
2023-03-11T23:45:00.074Z,-1.85
2023-03-11T23:47:32.116Z,-1.87
2023-03-11T23:50:02.638Z,-1.91
2023-03-11T23:52:33.699Z,-1.95
2023-03-11T23:55:03.615Z,-1.98
2023-03-11T23:57:35.380Z,-2.00
